Airfield :
LOGIN :

Register | Disclaimer

   EN    FR    IT 

 










Legend :    VFR   Marginal VFR   IFR   Intensive IFR   Very Intensive IFR
Visi :
Ceiling :
>= 8 km
>= 3000ft
5 to 8 km
1000 to 3000 ft
1500m to 5 km
500 to 1000 ft
800 to 1500m
200 to 500 ft
< 800m
< 200 ft
Symbols :   Thunderstorms  Fog  Heavy snow  Heavy precipitations  Wind > 20 kt
SIGMETs :     Misc.  Thunderstorms  Icing  Turbulence  Mountain Waves  Volcanic Ashes






- Airport Elevation : 622 ft
- IATA code : BRS


EGGD - Bristol Int.

CURRENT METAR :
  • 131220Z AUTO 17005KT 9999 NCD 06/03 Q0998

EXPIRED METARs :
  • 131150Z AUTO 18006KT 150V210 9999 NCD 06/03 Q0999
  • 131120Z AUTO 18005KT 9999 NCD 06/03 Q0999
  • 131050Z AUTO 20008KT 9999 SCT024 06/03 Q1000
  • 131020Z AUTO 23005KT 9999 NCD 05/03 Q1000
  • 130950Z AUTO 24005KT 9999 NCD 05/03 Q1001

TAF TAF EGGD
Valid from the 13 at 12:00 until the 14 at 12:00 UTC


131107Z 1312/1412 19010KT 9999 FEW020
BECMG 1314/1317 11010KT
BECMG 1316/1318 BKN009
TEMPO 1316/1321 12015G25KT 6000 RA SHRA
PROB30
TEMPO 1317/1321 3000 +SHRA BKN004
BECMG 1318/1321 17004KT
TEMPO 1321/1412 8000 -RA BKN003
PROB40
TEMPO 1321/1412 4000 RADZ SHRA
PROB30
TEMPO 1403/1407 0300 FG BKN001
BECMG 1407/1411 03012KT
ATIS : +44 1275 473 666



MET'MAP, your aeronautical weather chart ! - Copyright ORBIFLY December 2007 - Disclaimer

ORBIFLY MET'MAP TEAM :

Programming & Development : Alexandra Zaïnal
Concept & Development : Baudouin d'Aumeries
Co-Development & Prog : Marc-Olivier Méhu
Technical & hardware support : Manuel Goepfert

Contact : metmap@orbifly.com




SOURCES & CREDITS :

   NOAA